Shepherd's Bush, United Kingdom
Current Conditions -  °F | °C
As of 4:50 AM on Saturday 20 Dec 2014 (Local Time) from EGWU Reporting Station
Broken Clouds Broken Clouds  
Wind Chill: 36°   Ceiling: 4200
Heat Index: 41°   Visibility: 6mi
Dew Point: 37°   Wind: 8mph
Humidity: 87%   Direction: 250°WSW
Pressure: 30.21"   Gusts: NA
Location:  51.51°N, 0.24°W
Report Text: EGWU 200450Z AUTO 25007KT 9999 // BKN042/// 05/03 Q1023
Loading
Personal Weather Stations






























Interactive Weather Map New forecast layout! Learn more

10-Day Weather Forecast

Advertisements
Track Severe Weather on mobile